Time;durP1;ratioP1;P1;durP2;ratioP2;P2;SDS_P1;SDS_P2;PMS_P1;PMS_P2;Temp;Humidity;BMP_temperature;BMP_pressure;BME280_temperature;BME280_humidity;BME280_pressure;Samples;Min_cycle;Max_cycle;Signal;HPM_P1;HPM_P2
2022/09/03 00:00:54;;;;;;;7.90;1.10;;;;;;;22.36;28.54;100719.49;117340;1183;22808;-65
2022/09/03 00:03:23;;;;;;;5.50;1.40;;;;;;;22.36;28.56;100716.64;117131;1183;22251;-58
2022/09/03 00:06:01;;;;;;;4.90;1.80;;;;;;;22.35;28.58;100712.38;117371;1183;23535;-65
2022/09/03 00:08:42;;;;;;;7.20;1.40;;;;;;;22.34;28.61;100711.20;117350;1189;21880;-66
2022/09/03 00:11:14;;;;;;;6.50;2.30;;;;;;;22.36;28.55;100709.48;117096;1182;21975;-59
2022/09/03 00:13:46;;;;;;;4.90;1.30;;;;;;;22.36;28.53;100711.96;117158;1186;21862;-65
2022/09/03 00:16:16;;;;;;;7.30;1.30;;;;;;;22.35;28.60;100711.14;117259;1186;23475;-59
2022/09/03 00:18:45;;;;;;;6.00;1.20;;;;;;;22.34;28.57;100707.62;117327;1189;21855;-65
2022/09/03 00:21:38;;;;;;;6.10;1.30;;;;;;;22.33;28.56;100706.78;117487;1182;22056;-66
2022/09/03 00:24:07;;;;;;;5.70;1.40;;;;;;;22.32;28.65;100709.67;117148;1183;22928;-58
2022/09/03 00:26:44;;;;;;;4.60;1.40;;;;;;;22.32;28.63;100717.39;116978;1187;22927;-66
2022/09/03 00:29:20;;;;;;;3.90;1.40;;;;;;;22.31;28.63;100725.83;117156;1186;21861;-59
2022/09/03 00:31:52;;;;;;;3.70;1.50;;;;;;;22.31;28.69;100726.75;117188;1182;23458;-66
2022/09/03 00:34:30;;;;;;;7.40;1.40;;;;;;;22.30;28.65;100728.55;117330;1185;21855;-59
2022/09/03 00:36:57;;;;;;;5.60;1.70;;;;;;;22.30;28.65;100725.72;117155;1185;23451;-66
2022/09/03 00:39:25;;;;;;;6.70;1.40;;;;;;;22.29;28.62;100720.23;117195;1183;21897;-66
2022/09/03 00:42:29;;;;;;;7.80;1.50;;;;;;;22.27;28.55;100717.46;117268;1183;23453;-66
2022/09/03 00:45:20;;;;;;;6.10;1.70;;;;;;;22.19;28.65;100711.50;117064;1183;22529;-59
2022/09/03 00:48:14;;;;;;;9.70;2.30;;;;;;;22.20;28.61;100714.27;117062;1187;22987;-66
2022/09/03 00:51:13;;;;;;;5.30;1.50;;;;;;;22.20;28.63;100711.62;117214;1186;22330;-67
2022/09/03 00:53:53;;;;;;;6.80;1.60;;;;;;;22.19;28.64;100712.59;117197;1182;22322;-66
2022/09/03 00:56:43;;;;;;;11.00;1.80;;;;;;;22.17;28.71;100716.77;117371;1180;22912;-66
2022/09/03 00:59:14;;;;;;;5.70;1.60;;;;;;;22.15;28.73;100713.30;117227;1186;21855;-66
2022/09/03 01:01:54;;;;;;;9.20;2.00;;;;;;;22.12;28.81;100714.15;117307;1186;21859;-65
2022/09/03 01:04:52;;;;;;;9.70;2.30;;;;;;;22.11;28.72;100713.67;117147;1188;22908;-65
2022/09/03 01:07:47;;;;;;;7.20;1.90;;;;;;;22.09;28.69;100716.29;117112;1186;22929;-59
2022/09/03 01:10:37;;;;;;;7.00;1.80;;;;;;;22.07;28.79;100724.30;117151;1183;22685;-58
2022/09/03 01:13:09;;;;;;;8.80;2.00;;;;;;;22.06;28.82;100727.05;117034;1187;22941;-58
2022/09/03 01:16:07;;;;;;;7.10;1.90;;;;;;;22.04;28.79;100722.88;116982;1185;23480;-58
2022/09/03 01:18:44;;;;;;;6.90;1.70;;;;;;;22.02;28.90;100719.41;117303;1182;21943;-66
2022/09/03 01:21:33;;;;;;;4.70;1.70;;;;;;;22.01;28.82;100716.93;116997;1186;23133;-60
2022/09/03 01:24:06;;;;;;;7.00;1.80;;;;;;;22.01;28.90;100717.66;117116;1187;22927;-67
2022/09/03 01:27:00;;;;;;;9.50;1.90;;;;;;;22.00;28.95;100717.17;117084;1182;23115;-67
2022/09/03 01:29:33;;;;;;;4.40;1.50;;;;;;;22.00;28.89;100718.08;117288;1183;22930;-67
2022/09/03 01:32:34;;;;;;;5.60;1.90;;;;;;;21.99;28.89;100715.45;117059;1186;22929;-67
2022/09/03 01:35:05;;;;;;;5.10;1.80;;;;;;;21.98;28.89;100715.63;116989;1182;22156;-66
2022/09/03 01:37:31;;;;;;;;;;;;;;;21.98;28.89;100715.86;117131;1187;23605;-60
2022/09/03 01:40:12;;;;;;;4.60;1.90;;;;;;;21.90;28.96;100714.66;117124;1183;22994;-60
2022/09/03 01:42:38;;;;;;;6.20;2.40;;;;;;;21.93;28.88;100713.62;117133;1183;23469;-60
2022/09/03 01:45:07;;;;;;;4.90;1.70;;;;;;;21.95;28.89;100712.61;117160;1185;21856;-66
2022/09/03 01:47:50;;;;;;;5.70;1.80;;;;;;;21.95;28.82;100718.30;117094;1188;22855;-66
2022/09/03 01:50:20;;;;;;;8.00;2.50;;;;;;;21.95;28.88;100719.92;117142;1186;22923;-66
2022/09/03 01:53:03;;;;;;;5.50;1.80;;;;;;;21.94;28.94;100718.91;117120;1186;23796;-67
2022/09/03 01:55:32;;;;;;;4.90;1.90;;;;;;;21.92;28.91;100721.85;117049;1188;23455;-60
2022/09/03 01:58:05;;;;;;;5.50;1.80;;;;;;;21.93;28.98;100727.21;117123;1188;23554;-66
2022/09/03 02:00:33;;;;;;;6.70;2.20;;;;;;;21.92;28.94;100726.52;117012;1187;21849;-60
2022/09/03 02:03:05;;;;;;;6.70;2.00;;;;;;;21.91;29.01;100727.51;117003;1187;23547;-59
2022/09/03 02:05:34;;;;;;;5.40;1.80;;;;;;;21.90;28.99;100730.75;117133;1188;23729;-66
2022/09/03 02:08:04;;;;;;;5.30;1.90;;;;;;;21.89;28.98;100731.34;117137;1186;22654;-66
2022/09/03 02:10:48;;;;;;;6.10;1.60;;;;;;;21.88;29.00;100729.09;117330;1186;22928;-59
2022/09/03 02:13:24;;;;;;;3.00;1.30;;;;;;;21.86;29.10;100726.33;117285;1185;23548;-66
2022/09/03 02:15:52;;;;;;;5.80;1.60;;;;;;;21.85;29.10;100729.59;117225;1186;22927;-66
2022/09/03 02:18:30;;;;;;;7.00;1.20;;;;;;;21.82;29.10;100734.20;117185;1185;21853;-66
2022/09/03 02:20:58;;;;;;;7.50;1.60;;;;;;;21.83;29.06;100735.94;117217;1188;23668;-60
2022/09/03 02:23:26;;;;;;;3.90;1.20;;;;;;;21.83;29.11;100734.89;117129;1187;22248;-66
2022/09/03 02:25:56;;;;;;;9.40;1.80;;;;;;;21.83;29.15;100732.05;116993;1189;21997;-60
2022/09/03 02:28:24;;;;;;;9.10;1.90;;;;;;;21.82;29.17;100734.41;117168;1187;22725;-66
2022/09/03 02:30:51;;;;;;;4.10;2.20;;;;;;;21.81;29.14;100736.63;117162;1188;23560;-60
2022/09/03 02:33:19;;;;;;;5.70;1.50;;;;;;;21.79;29.15;100737.93;117277;1185;22985;-66
2022/09/03 02:35:46;;;;;;;6.10;1.40;;;;;;;21.78;29.17;100741.59;117209;1186;22613;-66
2022/09/03 02:38:20;;;;;;;3.70;1.30;;;;;;;21.75;29.15;100745.48;117052;1186;22947;-60
2022/09/03 02:40:47;;;;;;;4.90;1.40;;;;;;;21.70;29.16;100752.50;117158;1186;21858;-59
2022/09/03 02:43:39;;;;;;;6.90;1.50;;;;;;;21.67;29.20;100754.84;117102;1186;21971;-60
2022/09/03 02:46:09;;;;;;;3.00;1.40;;;;;;;21.62;29.31;100752.91;117088;1186;23575;-66
2022/09/03 02:48:36;;;;;;;11.80;2.30;;;;;;;21.58;29.33;100748.48;117158;1185;22965;-68
2022/09/03 02:51:03;;;;;;;9.60;1.40;;;;;;;21.53;29.43;100743.91;117262;1186;22998;-61
2022/09/03 02:53:41;;;;;;;6.10;1.30;;;;;;;21.50;29.48;100744.98;117068;1187;21870;-58
2022/09/03 02:56:08;;;;;;;18.90;2.10;;;;;;;21.47;29.52;100742.08;117165;1183;23472;-59
2022/09/03 02:58:36;;;;;;;5.20;1.70;;;;;;;21.45;29.65;100740.23;117191;1187;22645;-65
2022/09/03 03:01:03;;;;;;;7.60;1.70;;;;;;;21.43;29.66;100734.62;117061;1185;21870;-59
2022/09/03 03:03:31;;;;;;;10.70;1.50;;;;;;;21.42;29.61;100731.30;117147;1182;23640;-66
2022/09/03 03:06:00;;;;;;;4.50;1.60;;;;;;;21.42;29.65;100727.38;117143;1188;22820;-59
2022/09/03 03:08:29;;;;;;;9.60;1.40;;;;;;;21.42;29.72;100723.79;117095;1188;22940;-66
2022/09/03 03:10:57;;;;;;;5.60;1.40;;;;;;;21.42;29.62;100728.60;117309;1182;23476;-66
2022/09/03 03:13:25;;;;;;;6.40;1.30;;;;;;;21.41;29.71;100726.87;117026;1179;22947;-59
2022/09/03 03:15:59;;;;;;;7.00;1.70;;;;;;;21.41;29.73;100725.84;117114;1185;23675;-66
2022/09/03 03:18:28;;;;;;;3.90;1.50;;;;;;;21.39;29.82;100727.88;117185;1186;21855;-66
2022/09/03 03:20:56;;;;;;;5.40;1.70;;;;;;;21.38;29.75;100729.17;117154;1185;22731;-59
2022/09/03 03:23:23;;;;;;;7.90;1.60;;;;;;;21.38;29.75;100734.16;117146;1183;24352;-66
2022/09/03 03:25:50;;;;;;;4.40;1.60;;;;;;;21.40;29.78;100737.64;117332;1185;23551;-59
2022/09/03 03:28:19;;;;;;;12.40;2.00;;;;;;;21.42;29.82;100736.65;117329;1184;22362;-67
2022/09/03 03:30:47;;;;;;;10.10;2.60;;;;;;;21.44;29.83;100738.13;117099;1186;21871;-62
2022/09/03 03:33:15;;;;;;;7.60;2.00;;;;;;;21.47;29.86;100742.45;117140;1186;21912;-59
2022/09/03 03:35:43;;;;;;;9.60;1.60;;;;;;;21.51;29.86;100749.02;117283;1182;22666;-67
2022/09/03 03:38:10;;;;;;;11.60;2.20;;;;;;;21.54;29.90;100752.99;117292;1182;23549;-59
2022/09/03 03:40:38;;;;;;;7.80;1.80;;;;;;;21.58;29.84;100758.88;117070;1188;24233;-59
2022/09/03 03:43:05;;;;;;;13.30;2.70;;;;;;;21.61;29.82;100758.36;117097;1187;23541;-59
2022/09/03 03:45:32;;;;;;;9.90;1.90;;;;;;;21.63;29.94;100751.81;117315;1182;23583;-67
2022/09/03 03:47:59;;;;;;;12.60;2.00;;;;;;;21.66;29.88;100744.33;117325;1184;21953;-59
2022/09/03 03:50:27;;;;;;;13.00;2.20;;;;;;;21.68;29.86;100744.60;117274;1186;23579;-60
2022/09/03 03:52:54;;;;;;;8.10;2.50;;;;;;;21.71;29.90;100741.42;117355;1186;22807;-67
2022/09/03 03:55:21;;;;;;;8.60;2.60;;;;;;;21.73;29.89;100732.56;119265;1185;22225;-67
2022/09/03 03:57:52;;;;;;;9.10;2.20;;;;;;;21.75;29.94;100733.48;119232;1185;21853;-60
2022/09/03 04:00:20;;;;;;;6.60;1.90;;;;;;;21.79;29.93;100734.39;116917;1184;23561;-67
2022/09/03 04:02:51;;;;;;;9.60;2.50;;;;;;;21.81;29.89;100739.98;118073;1185;21851;-59
2022/09/03 04:05:18;;;;;;;8.50;2.30;;;;;;;21.82;30.01;100740.09;119432;1185;21789;-59
2022/09/03 04:07:49;;;;;;;7.10;1.90;;;;;;;21.81;29.95;100729.61;119414;1185;21786;-59
2022/09/03 04:10:16;;;;;;;9.40;1.90;;;;;;;21.80;29.84;100726.29;118510;1186;21860;-67
2022/09/03 04:12:43;;;;;;;5.80;1.50;;;;;;;21.77;29.94;100722.16;117269;1185;22737;-65
2022/09/03 04:15:11;;;;;;;4.90;2.20;;;;;;;21.75;30.01;100721.05;117312;1185;24822;-66
2022/09/03 04:17:38;;;;;;;6.70;2.00;;;;;;;21.73;29.99;100720.57;117225;1185;21918;-58
2022/09/03 04:20:06;;;;;;;8.00;2.30;;;;;;;21.74;30.00;100724.65;117630;1184;23545;-61
2022/09/03 04:22:33;;;;;;;6.30;1.80;;;;;;;21.75;29.95;100726.22;117353;1185;24168;-59
2022/09/03 04:24:59;;;;;;;7.00;1.70;;;;;;;21.76;30.07;100721.89;117266;1186;22968;-58
2022/09/03 04:27:28;;;;;;;3.40;1.70;;;;;;;21.76;30.10;100722.94;117112;1184;22713;-66
2022/09/03 04:29:55;;;;;;;5.50;1.60;;;;;;;21.77;30.23;100722.36;117303;1185;21855;-66
2022/09/03 04:35:08;;;;;;;12.90;2.10;;;;;;;21.74;30.08;100716.09;117069;1185;22928;-59
2022/09/03 04:37:35;;;;;;;5.70;1.50;;;;;;;21.73;30.09;100713.27;117145;1184;21856;-66
2022/09/03 04:40:03;;;;;;;7.20;1.60;;;;;;;21.71;30.13;100708.71;117124;1184;22941;-65
2022/09/03 04:42:31;;;;;;;9.70;1.80;;;;;;;21.72;30.19;100710.86;117147;1185;22928;-65
2022/09/03 04:44:58;;;;;;;7.10;1.70;;;;;;;21.71;30.21;100710.69;117082;1187;22906;-67
2022/09/03 04:47:26;;;;;;;7.60;1.80;;;;;;;21.71;30.29;100710.52;117424;1185;24684;-65
2022/09/03 04:49:54;;;;;;;5.90;1.70;;;;;;;21.68;30.33;100711.91;117315;1183;22998;-58
2022/09/03 04:52:21;;;;;;;4.60;2.00;;;;;;;21.63;30.36;100716.09;117188;1184;23475;-65
2022/09/03 04:54:48;;;;;;;3.50;1.60;;;;;;;21.61;30.43;100718.73;117095;1182;21880;-58
2022/09/03 04:57:15;;;;;;;7.40;1.80;;;;;;;21.60;30.51;100717.69;117213;1185;21868;-58
2022/09/03 04:59:42;;;;;;;5.60;2.20;;;;;;;21.58;30.51;100712.63;117319;1183;23449;-60
2022/09/03 05:02:09;;;;;;;6.10;1.70;;;;;;;21.56;30.64;100710.41;117156;1182;22365;-65
2022/09/03 05:04:36;;;;;;;4.00;2.00;;;;;;;21.53;30.63;100710.87;117194;1186;21873;-66
2022/09/03 05:07:03;;;;;;;4.20;1.80;;;;;;;21.53;30.64;100709.46;119172;1186;21844;-67
2022/09/03 05:09:30;;;;;;;6.00;1.80;;;;;;;21.55;30.64;100709.18;119169;1186;21811;-66
2022/09/03 05:11:57;;;;;;;4.50;2.10;;;;;;;21.56;30.69;100715.21;117141;1187;23475;-59
2022/09/03 05:14:24;;;;;;;6.30;2.00;;;;;;;21.56;30.69;100716.09;118087;1183;22969;-59
2022/09/03 05:16:51;;;;;;;17.90;2.20;;;;;;;21.57;30.68;100719.30;117036;1183;22970;-68
2022/09/03 05:19:19;;;;;;;29.20;3.40;;;;;;;21.61;30.81;100716.76;116951;1184;21855;-57
2022/09/03 05:21:46;;;;;;;15.20;2.90;;;;;;;21.69;30.89;100718.31;117321;1185;23456;-65
2022/09/03 05:24:14;;;;;;;10.30;2.30;;;;;;;21.77;30.78;100713.23;117401;1182;21870;-57
2022/09/03 05:26:41;;;;;;;7.00;2.20;;;;;;;21.86;30.67;100710.63;117121;1184;22117;-65
2022/09/03 05:29:08;;;;;;;8.00;2.20;;;;;;;21.93;30.66;100708.11;117105;1185;23006;-57
2022/09/03 05:31:37;;;;;;;6.40;2.20;;;;;;;22.00;30.70;100710.55;117070;1184;22976;-58
2022/09/03 05:34:05;;;;;;;5.50;1.80;;;;;;;22.06;30.72;100712.55;117277;1186;21855;-65
2022/09/03 05:36:34;;;;;;;7.40;2.30;;;;;;;22.10;30.77;100714.10;117364;1185;21859;-65
2022/09/03 05:39:02;;;;;;;5.00;2.10;;;;;;;22.13;30.76;100715.54;117355;1186;21865;-67
2022/09/03 05:41:30;;;;;;;13.80;2.60;;;;;;;22.16;30.76;100716.13;117112;1187;24243;-58
2022/09/03 05:43:58;;;;;;;10.10;2.60;;;;;;;22.16;30.68;100717.89;117027;1183;24172;-67
2022/09/03 05:46:30;;;;;;;7.10;2.00;;;;;;;22.15;30.75;100718.86;117148;1188;21861;-58
2022/09/03 05:49:02;;;;;;;6.80;2.00;;;;;;;22.13;30.68;100721.13;117127;1186;21899;-68
2022/09/03 05:51:29;;;;;;;6.50;2.20;;;;;;;22.10;30.65;100718.95;117046;1182;23019;-69
2022/09/03 05:53:56;;;;;;;4.40;1.90;;;;;;;22.09;30.66;100719.16;117179;1183;23310;-60
2022/09/03 05:56:24;;;;;;;7.10;2.30;;;;;;;22.10;30.68;100718.56;117180;1184;23554;-60
2022/09/03 05:58:53;;;;;;;18.00;3.00;;;;;;;22.12;30.76;100722.41;117233;1181;22970;-67
2022/09/03 06:01:28;;;;;;;12.50;2.60;;;;;;;22.14;30.78;100723.38;117161;1186;23554;-68
2022/09/03 06:04:06;;;;;;;12.00;2.60;;;;;;;22.18;30.78;100722.64;117079;1182;22928;-61
2022/09/03 06:06:34;;;;;;;9.20;2.10;;;;;;;22.20;30.75;100721.25;117361;1184;24203;-68
2022/09/03 06:09:03;;;;;;;8.20;2.30;;;;;;;22.22;30.82;100720.27;117372;1185;21892;-68
2022/09/03 06:11:31;;;;;;;7.50;2.10;;;;;;;22.24;30.83;100717.30;117163;1186;21867;-59
2022/09/03 06:14:00;;;;;;;4.10;2.00;;;;;;;22.26;30.75;100716.78;117035;1184;22947;-68
2022/09/03 06:16:28;;;;;;;4.90;2.10;;;;;;;22.29;30.73;100714.17;118477;1187;21893;-60
2022/09/03 06:18:58;;;;;;;8.30;2.20;;;;;;;22.31;30.62;100714.37;118918;1186;21864;-67
2022/09/03 06:21:26;;;;;;;4.10;1.90;;;;;;;22.35;30.65;100710.96;117214;1186;23477;-66
2022/09/03 06:23:55;;;;;;;4.70;1.80;;;;;;;22.38;30.70;100712.05;117055;1188;23468;-67
2022/09/03 06:26:27;;;;;;;5.00;1.90;;;;;;;22.40;30.61;100714.44;117097;1186;23493;-59
2022/09/03 06:28:55;;;;;;;3.20;1.60;;;;;;;22.43;30.74;100715.00;116964;1183;24096;-68
2022/09/03 06:31:23;;;;;;;3.20;1.80;;;;;;;22.46;30.62;100713.82;117212;1186;21865;-68
2022/09/03 06:33:52;;;;;;;6.50;1.70;;;;;;;22.46;30.63;100718.42;116995;1186;23056;-59
2022/09/03 06:36:21;;;;;;;5.20;1.90;;;;;;;22.46;30.66;100721.12;117140;1186;21864;-60
2022/09/03 06:38:51;;;;;;;11.00;2.20;;;;;;;22.45;30.84;100719.35;117057;1187;21910;-60
2022/09/03 06:41:23;;;;;;;9.20;2.00;;;;;;;22.43;31.02;100720.90;116920;1186;22090;-59
2022/09/03 06:43:54;;;;;;;8.00;2.20;;;;;;;22.37;31.33;100722.66;117031;1187;23000;-58
2022/09/03 06:46:22;;;;;;;8.10;2.40;;;;;;;22.28;31.83;100729.05;117000;1188;23450;-57
2022/09/03 06:48:50;;;;;;;8.80;2.10;;;;;;;22.21;32.41;100738.02;117108;1187;23643;-57
2022/09/03 06:51:19;;;;;;;4.20;2.20;;;;;;;22.10;32.90;100740.02;117114;1186;21857;-57
2022/09/03 06:53:49;;;;;;;5.60;2.30;;;;;;;21.96;33.57;100743.33;117207;1186;23652;-57
2022/09/03 06:56:25;;;;;;;6.60;2.20;;;;;;;21.80;33.96;100745.06;117115;1184;23552;-72
2022/09/03 06:58:55;;;;;;;5.80;2.10;;;;;;;21.67;34.10;100746.45;117095;1183;23829;-58
2022/09/03 07:01:24;;;;;;;9.30;2.50;;;;;;;21.57;34.15;100748.73;117120;1186;21854;-73
2022/09/03 07:03:59;;;;;;;15.90;2.60;;;;;;;21.50;34.20;100745.70;116933;1186;21864;-73
2022/09/03 07:06:29;;;;;;;9.70;2.70;;;;;;;21.44;34.28;100749.94;117116;1182;22488;-75
2022/09/03 07:08:59;;;;;;;10.10;2.20;;;;;;;21.38;34.38;100748.10;117217;1186;21944;-74
2022/09/03 07:11:28;;;;;;;7.60;2.10;;;;;;;21.31;34.58;100743.80;117026;1183;23881;-58
2022/09/03 07:13:56;;;;;;;10.90;3.50;;;;;;;21.25;35.24;100747.67;117214;1184;21857;-58
2022/09/03 07:16:26;;;;;;;9.50;2.50;;;;;;;21.18;35.95;100750.90;117076;1186;21846;-58
2022/09/03 07:18:55;;;;;;;18.20;3.10;;;;;;;21.07;36.47;100757.33;117098;1187;22109;-58
2022/09/03 07:21:26;;;;;;;8.40;3.00;;;;;;;20.98;36.86;100761.54;117132;1188;22929;-58
2022/09/03 07:23:54;;;;;;;7.60;2.50;;;;;;;20.92;37.23;100755.56;117134;1186;21864;-58
2022/09/03 07:26:27;;;;;;;9.90;2.70;;;;;;;20.89;37.63;100762.48;118802;1186;21902;-72
2022/09/03 07:28:55;;;;;;;8.30;2.90;;;;;;;20.84;37.87;100776.66;117058;1186;21879;-72
2022/09/03 07:31:32;;;;;;;10.30;2.50;;;;;;;20.79;38.41;100780.30;117131;1188;23664;-72
2022/09/03 07:34:04;;;;;;;6.40;2.60;;;;;;;20.73;38.80;100783.93;116944;1186;21859;-72
2022/09/03 07:36:40;;;;;;;9.10;2.30;;;;;;;20.70;38.97;100781.92;116976;1186;24275;-72
2022/09/03 07:39:08;;;;;;;8.80;3.30;;;;;;;20.69;39.56;100780.77;119154;1184;21794;-72
2022/09/03 07:41:36;;;;;;;4.00;2.60;;;;;;;20.68;39.12;100780.09;119092;1184;22279;-56
2022/09/03 07:44:06;;;;;;;9.10;2.20;;;;;;;20.68;39.22;100774.58;119256;1186;21802;-69
2022/09/03 07:46:40;;;;;;;5.50;2.50;;;;;;;20.64;39.38;100771.15;119170;1187;21766;-70
2022/09/03 07:49:08;;;;;;;10.30;2.60;;;;;;;20.62;39.68;100767.14;119188;1185;21784;-57
2022/09/03 07:51:36;;;;;;;9.80;2.50;;;;;;;20.64;39.89;100767.08;117986;1184;21856;-68
2022/09/03 07:54:06;;;;;;;5.90;2.30;;;;;;;20.63;39.82;100763.20;117044;1187;23456;-69
2022/09/03 07:56:34;;;;;;;14.80;2.40;;;;;;;20.64;40.21;100757.44;117124;1182;22589;-56
2022/09/03 07:59:03;;;;;;;8.00;2.80;;;;;;;20.66;40.25;100749.33;117287;1186;21857;-56
2022/09/03 08:01:34;;;;;;;4.60;2.20;;;;;;;20.70;40.16;100741.81;117312;1183;22932;-56
2022/09/03 08:04:03;;;;;;;9.20;3.10;;;;;;;20.73;40.14;100733.87;117051;1186;22310;-67
2022/09/03 08:06:37;;;;;;;8.20;3.00;;;;;;;20.76;40.26;100727.98;117082;1189;22921;-56
2022/09/03 08:09:07;;;;;;;6.30;2.50;;;;;;;20.78;40.14;100722.03;117338;1185;21859;-70
2022/09/03 08:11:39;;;;;;;7.40;2.40;;;;;;;20.78;40.19;100717.71;117152;1188;22929;-69
2022/09/03 08:14:12;;;;;;;7.20;2.60;;;;;;;20.77;40.08;100710.98;117069;1187;22095;-58
2022/09/03 08:16:47;;;;;;;14.00;3.30;;;;;;;20.73;40.10;100710.11;117084;1189;21854;-69
2022/09/03 08:19:17;;;;;;;14.10;2.60;;;;;;;20.70;39.96;100703.33;117123;1187;22921;-68
2022/09/03 08:21:44;;;;;;;9.70;2.70;;;;;;;20.68;39.82;100700.20;117086;1189;22930;-58
2022/09/03 08:24:14;;;;;;;7.50;2.50;;;;;;;20.69;39.72;100695.20;117087;1189;21849;-58
2022/09/03 08:26:43;;;;;;;7.00;2.70;;;;;;;20.70;39.42;100691.40;117183;1185;23669;-58
2022/09/03 08:29:18;;;;;;;8.50;2.80;;;;;;;20.68;39.27;100695.37;116982;1186;21841;-58
2022/09/03 08:31:45;;;;;;;9.50;2.90;;;;;;;20.66;39.15;100680.54;117098;1188;21858;-58
2022/09/03 08:34:15;;;;;;;9.90;3.00;;;;;;;20.62;39.28;100674.79;117164;1186;22932;-71
2022/09/03 08:36:45;;;;;;;6.50;2.40;;;;;;;20.58;39.35;100666.27;117153;1188;22932;-72
2022/09/03 08:39:13;;;;;;;5.40;2.20;;;;;;;20.55;39.49;100662.88;117006;1191;23633;-67
2022/09/03 08:41:51;;;;;;;6.60;2.40;;;;;;;20.51;39.57;100664.12;117236;1188;22533;-59
2022/09/03 08:44:25;;;;;;;6.90;2.30;;;;;;;20.48;40.08;100660.20;117158;1186;22902;-71
2022/09/03 08:47:14;;;;;;;9.30;2.80;;;;;;;20.40;40.49;100656.28;117137;1186;22834;-59
2022/09/03 08:49:48;;;;;;;7.20;2.70;;;;;;;20.30;40.75;100648.25;116987;1186;23555;-71
2022/09/03 08:52:31;;;;;;;12.30;2.70;;;;;;;20.21;41.02;100648.64;117184;1186;22734;-58
2022/09/03 08:55:32;;;;;;;7.80;2.80;;;;;;;20.13;41.12;100652.25;116927;1187;23459;-71
2022/09/03 08:58:01;;;;;;;5.40;2.30;;;;;;;20.05;41.34;100653.34;117041;1187;23582;-59
2022/09/03 09:00:39;;;;;;;6.70;2.80;;;;;;;20.01;41.42;100649.25;117130;1186;22625;-59
2022/09/03 09:03:24;;;;;;;8.40;2.70;;;;;;;19.97;41.81;100643.73;117130;1187;21862;-59
2022/09/03 09:05:57;;;;;;;5.60;2.90;;;;;;;19.92;42.54;100643.25;117141;1187;22526;-72
2022/09/03 09:08:33;;;;;;;5.40;2.80;;;;;;;19.86;42.94;100637.29;117098;1188;23608;-59
2022/09/03 09:11:08;;;;;;;6.50;2.50;;;;;;;19.77;42.75;100627.35;117117;1186;21860;-59
2022/09/03 09:13:46;;;;;;;9.00;2.40;;;;;;;19.71;42.86;100621.05;116995;1185;24165;-68
2022/09/03 09:16:32;;;;;;;7.70;3.20;;;;;;;19.67;43.00;100620.17;117058;1187;21860;-58
2022/09/03 09:19:11;;;;;;;7.00;2.70;;;;;;;19.61;43.08;100625.63;117282;1186;23556;-58
2022/09/03 09:21:44;;;;;;;10.70;3.00;;;;;;;19.55;43.27;100629.44;117087;1188;21851;-59
2022/09/03 09:24:25;;;;;;;9.10;2.70;;;;;;;19.51;43.34;100626.25;116986;1189;21924;-69
2022/09/03 09:26:58;;;;;;;3.80;2.30;;;;;;;19.46;43.37;100620.75;117118;1184;23582;-69
2022/09/03 09:29:36;;;;;;;6.10;2.00;;;;;;;19.42;43.42;100620.42;117056;1188;22929;-69
2022/09/03 09:32:06;;;;;;;3.60;2.10;;;;;;;19.37;43.65;100620.50;117106;1187;22913;-58
2022/09/03 09:34:37;;;;;;;6.30;2.00;;;;;;;19.32;43.84;100624.95;116963;1184;23453;-58
2022/09/03 09:37:07;;;;;;;4.30;2.10;;;;;;;19.29;43.42;100631.51;116981;1187;22935;-68
2022/09/03 09:39:35;;;;;;;5.80;2.20;;;;;;;19.28;43.35;100634.02;117069;1187;24787;-69
2022/09/03 09:42:10;;;;;;;4.00;2.30;;;;;;;19.25;43.19;100638.23;117127;1186;22919;-68
2022/09/03 09:44:39;;;;;;;4.40;2.00;;;;;;;19.23;43.28;100637.98;117099;1185;21861;-58
2022/09/03 09:47:21;;;;;;;4.60;2.30;;;;;;;19.21;43.40;100640.55;116996;1187;21858;-58
2022/09/03 09:49:52;;;;;;;8.50;2.10;;;;;;;19.19;43.46;100642.98;117065;1187;21934;-68
2022/09/03 09:52:20;;;;;;;12.90;2.60;;;;;;;19.18;43.37;100644.61;117106;1184;23043;-66
2022/09/03 09:54:48;;;;;;;4.20;2.00;;;;;;;19.18;43.49;100647.10;116973;1187;23307;-66
2022/09/03 09:57:17;;;;;;;4.60;1.90;;;;;;;19.19;43.59;100645.30;117136;1188;23557;-56
2022/09/03 09:59:45;;;;;;;5.90;2.20;;;;;;;19.19;43.55;100646.34;117136;1188;21859;-56
2022/09/03 10:02:25;;;;;;;6.20;2.20;;;;;;;19.20;43.65;100649.51;117063;1186;21865;-57
2022/09/03 10:04:54;;;;;;;6.20;2.60;;;;;;;19.21;43.86;100656.22;117083;1188;23623;-66
2022/09/03 10:07:30;;;;;;;5.70;2.40;;;;;;;19.21;43.96;100661.92;117143;1187;21887;-57
2022/09/03 10:10:01;;;;;;;3.90;1.90;;;;;;;19.22;43.88;100673.23;117065;1187;23469;-66
2022/09/03 10:12:28;;;;;;;;;;;;;;;19.24;44.01;100679.72;117071;1186;21835;-66
2022/09/03 10:15:20;;;;;;;5.90;2.20;;;;;;;19.27;44.08;100686.90;117249;1186;21868;-65
2022/09/03 10:18:13;;;;;;;5.50;2.10;;;;;;;19.31;44.18;100694.21;118009;1186;21864;-57
2022/09/03 10:20:41;;;;;;;3.70;1.90;;;;;;;19.36;44.16;100696.86;117249;1186;23461;-57
2022/09/03 10:23:22;;;;;;;4.30;2.00;;;;;;;19.40;44.57;100702.55;117081;1183;24156;-65
2022/09/03 10:26:08;;;;;;;4.80;1.90;;;;;;;19.45;44.40;100700.52;117123;1188;21858;-57
2022/09/03 10:28:41;;;;;;;4.00;1.90;;;;;;;19.51;44.35;100698.34;116932;1184;24229;-57
2022/09/03 10:31:23;;;;;;;5.70;2.30;;;;;;;19.56;44.35;100698.65;117106;1187;24226;-57
2022/09/03 10:34:14;;;;;;;4.50;1.90;;;;;;;19.61;44.26;100699.66;117139;1186;22882;-67
2022/09/03 10:36:55;;;;;;;4.40;1.80;;;;;;;19.66;44.26;100701.36;117007;1185;22870;-58
2022/09/03 10:39:42;;;;;;;4.50;1.90;;;;;;;19.72;44.50;100705.73;117218;1183;24299;-67
2022/09/03 10:42:34;;;;;;;5.90;2.10;;;;;;;19.76;44.68;100709.64;117118;1186;23904;-68
2022/09/03 10:45:22;;;;;;;6.40;2.20;;;;;;;19.80;44.62;100713.57;117091;1184;23526;-67
2022/09/03 10:48:03;;;;;;;6.20;2.00;;;;;;;19.84;44.61;100715.54;117174;1182;23002;-58
2022/09/03 10:50:53;;;;;;;;;;;;;;;19.86;44.52;100719.73;117098;1182;21854;-58
2022/09/03 10:53:42;;;;;;;8.30;2.50;;;;;;;19.86;44.52;100724.16;117052;1186;22921;-67
2022/09/03 10:56:16;;;;;;;6.60;1.90;;;;;;;19.79;44.86;100722.52;117058;1187;21856;-58
2022/09/03 10:58:44;;;;;;;3.90;1.90;;;;;;;19.86;44.57;100719.36;117096;1187;23557;-57
2022/09/03 11:01:33;;;;;;;4.80;2.00;;;;;;;19.94;44.41;100717.59;117131;1187;23523;-67
2022/09/03 11:04:21;;;;;;;10.00;2.70;;;;;;;19.99;44.47;100717.38;116941;1186;21856;-58
2022/09/03 11:06:53;;;;;;;5.90;1.90;;;;;;;20.04;44.58;100713.73;117177;1184;23478;-68
2022/09/03 11:09:30;;;;;;;5.20;2.20;;;;;;;20.08;44.47;100703.61;117117;1186;23656;-66
2022/09/03 11:12:04;;;;;;;5.40;2.20;;;;;;;20.10;44.74;100692.46;117025;1187;22929;-66
2022/09/03 11:14:39;;;;;;;5.30;2.20;;;;;;;20.11;44.60;100692.20;117007;1183;21859;-66
2022/09/03 11:17:20;;;;;;;3.50;2.10;;;;;;;20.14;44.78;100685.88;117046;1185;22804;-67
2022/09/03 11:20:14;;;;;;;7.30;2.10;;;;;;;20.15;45.07;100682.24;117047;1186;22095;-58
2022/09/03 11:22:42;;;;;;;7.80;2.80;;;;;;;20.17;45.20;100678.39;117101;1185;23601;-58
2022/09/03 11:25:09;;;;;;;6.70;2.30;;;;;;;20.19;45.35;100675.98;116974;1189;23723;-67
2022/09/03 11:27:59;;;;;;;7.20;2.50;;;;;;;20.19;45.47;100669.02;117109;1188;23570;-67
2022/09/03 11:30:46;;;;;;;8.40;2.80;;;;;;;20.20;45.37;100664.73;117104;1187;24255;-67
2022/09/03 11:33:17;;;;;;;39.10;22.60;;;;;;;20.20;45.33;100661.49;117146;1184;23245;-66
2022/09/03 11:35:44;;;;;;;;;;;;;;;20.20;45.21;100657.39;117155;1188;21888;-57
2022/09/03 11:38:19;;;;;;;14.20;6.60;;;;;;;20.20;45.53;100657.44;117146;1186;23580;-69
2022/09/03 11:41:15;;;;;;;10.00;3.90;;;;;;;20.19;44.87;100657.46;117106;1187;21858;-57
2022/09/03 11:43:43;;;;;;;9.10;3.60;;;;;;;20.23;44.95;100661.91;117099;1188;22625;-64
2022/09/03 11:46:26;;;;;;;11.80;3.20;;;;;;;20.24;45.01;100661.15;117081;1185;23016;-58